Time;durP1;ratioP1;P1;durP2;ratioP2;P2;SDS_P1;SDS_P2;PMS_P1;PMS_P2;Temp;Humidity;BMP_temperature;BMP_pressure;BME280_temperature;BME280_humidity;BME280_pressure;Samples;Min_cycle;Max_cycle;Signal;HPM_P1;HPM_P2
2023/01/22 00:01:00;;;;;;;4.07;3.08;;;;;;;;;;5075508;28;20197;-61
2023/01/22 00:03:27;;;;;;;3.25;2.83;;;;;;;;;;5075453;28;20679;-61
2023/01/22 00:05:54;;;;;;;3.35;3.15;;;;;;;;;;5075327;28;20194;-61
2023/01/22 00:08:21;;;;;;;4.32;3.28;;;;;;;;;;5075624;28;20218;-61
2023/01/22 00:10:51;;;;;;;5.60;3.17;;;;;;;;;;5074999;28;20650;-61
2023/01/22 00:13:18;;;;;;;4.97;3.10;;;;;;;;;;5075545;28;20277;-61
2023/01/22 00:15:45;;;;;;;5.55;2.85;;;;;;;;;;5075208;28;20186;-61
2023/01/22 00:18:13;;;;;;;4.18;3.38;;;;;;;;;;5075049;28;20418;-61
2023/01/22 00:20:40;;;;;;;3.33;3.08;;;;;;;;;;5075276;28;20186;-61
2023/01/22 00:23:07;;;;;;;3.78;3.10;;;;;;;;;;5074859;28;20558;-61
2023/01/22 00:25:34;;;;;;;4.20;3.55;;;;;;;;;;5073540;28;20192;-61
2023/01/22 00:28:01;;;;;;;3.33;3.03;;;;;;;;;;5074795;28;20218;-61
2023/01/22 00:30:28;;;;;;;4.53;3.50;;;;;;;;;;5074893;28;20193;-61
2023/01/22 00:32:55;;;;;;;3.92;3.45;;;;;;;;;;5074853;28;20208;-61
2023/01/22 00:35:23;;;;;;;5.00;4.07;;;;;;;;;;5074729;28;20225;-61
2023/01/22 00:37:50;;;;;;;3.92;3.50;;;;;;;;;;5074587;28;20679;-61
2023/01/22 00:40:17;;;;;;;7.88;4.68;;;;;;;;;;5074526;28;21003;-61
2023/01/22 00:42:44;;;;;;;4.05;3.22;;;;;;;;;;5074653;28;20192;-61
2023/01/22 00:45:13;;;;;;;3.95;3.53;;;;;;;;;;5074273;28;20232;-61
2023/01/22 00:47:40;;;;;;;6.85;3.60;;;;;;;;;;5074435;28;20619;-61
2023/01/22 00:50:07;;;;;;;4.28;3.70;;;;;;;;;;5074401;28;20217;-61
2023/01/22 00:52:37;;;;;;;4.22;3.80;;;;;;;;;;5074247;28;20196;-61
2023/01/22 00:55:04;;;;;;;4.82;3.75;;;;;;;;;;5074494;28;20198;-61
2023/01/22 00:57:31;;;;;;;6.95;3.97;;;;;;;;;;5074342;28;20187;-60
2023/01/22 00:59:58;;;;;;;4.07;3.67;;;;;;;;;;5074263;28;20190;-61
2023/01/22 01:02:24;;;;;;;3.72;3.42;;;;;;;;;;5074104;28;20549;-61
2023/01/22 01:04:51;;;;;;;3.83;3.53;;;;;;;;;;5074020;28;20714;-61
2023/01/22 01:07:18;;;;;;;4.22;3.83;;;;;;;;;;5074013;28;20277;-61
2023/01/22 01:09:47;;;;;;;3.60;3.30;;;;;;;;;;5074157;28;20226;-61
2023/01/22 01:12:13;;;;;;;4.30;3.72;;;;;;;;;;5074103;28;20191;-61
2023/01/22 01:14:40;;;;;;;4.43;3.25;;;;;;;;;;5074016;28;20196;-61
2023/01/22 01:17:07;;;;;;;4.05;3.42;;;;;;;;;;5073887;28;20608;-61
2023/01/22 01:19:34;;;;;;;5.63;3.83;;;;;;;;;;5073747;28;20195;-61
2023/01/22 01:22:01;;;;;;;5.20;4.32;;;;;;;;;;5073737;28;20185;-61
2023/01/22 01:24:28;;;;;;;6.43;4.40;;;;;;;;;;5073811;28;20225;-61
2023/01/22 01:26:56;;;;;;;5.10;3.85;;;;;;;;;;5073705;28;20191;-61
2023/01/22 01:29:23;;;;;;;5.70;4.40;;;;;;;;;;5073511;28;20666;-61
2023/01/22 01:31:53;;;;;;;8.70;3.92;;;;;;;;;;5073591;28;20185;-61
2023/01/22 01:34:20;;;;;;;6.93;4.10;;;;;;;;;;5073505;28;20657;-61
2023/01/22 01:36:47;;;;;;;4.97;4.50;;;;;;;;;;5073364;28;20689;-61
2023/01/22 01:39:14;;;;;;;6.30;5.35;;;;;;;;;;5073548;28;20194;-61
2023/01/22 01:41:41;;;;;;;5.40;4.10;;;;;;;;;;5073455;28;20318;-61
2023/01/22 01:44:10;;;;;;;5.18;4.68;;;;;;;;;;5073178;28;20229;-61
2023/01/22 01:46:39;;;;;;;6.55;4.22;;;;;;;;;;5073315;28;20198;-61
2023/01/22 01:49:06;;;;;;;4.72;4.32;;;;;;;;;;5073248;28;20411;-61
2023/01/22 01:51:34;;;;;;;6.85;4.72;;;;;;;;;;5073312;28;20272;-61
2023/01/22 01:54:03;;;;;;;7.80;4.60;;;;;;;;;;5073254;28;20197;-61
2023/01/22 01:56:31;;;;;;;5.85;4.30;;;;;;;;;;5073057;28;20288;-61
2023/01/22 01:59:01;;;;;;;4.28;3.90;;;;;;;;;;5073059;28;20190;-61
2023/01/22 02:01:29;;;;;;;7.00;4.93;;;;;;;;;;5072937;28;20190;-61
2023/01/22 02:03:56;;;;;;;7.45;5.65;;;;;;;;;;5073131;28;20187;-61
2023/01/22 02:06:23;;;;;;;7.72;5.22;;;;;;;;;;5073034;28;20196;-61
2023/01/22 02:08:52;;;;;;;5.20;4.60;;;;;;;;;;5073018;28;20217;-61
2023/01/22 02:11:19;;;;;;;6.43;4.80;;;;;;;;;;5073008;28;20193;-61
2023/01/22 02:13:48;;;;;;;6.18;5.05;;;;;;;;;;5072906;28;20189;-61
2023/01/22 02:16:15;;;;;;;7.20;4.70;;;;;;;;;;5072805;28;20281;-61
2023/01/22 02:18:43;;;;;;;9.10;5.80;;;;;;;;;;5072966;28;20198;-61
2023/01/22 02:21:35;;;;;;;8.50;5.57;;;;;;;;;;5073026;28;20191;-61
2023/01/22 02:24:02;;;;;;;7.03;5.05;;;;;;;;;;5072837;28;20187;-61
2023/01/22 02:26:29;;;;;;;5.50;5.00;;;;;;;;;;5072751;28;20194;-61
2023/01/22 02:28:56;;;;;;;6.70;5.25;;;;;;;;;;5072868;28;20214;-61
2023/01/22 02:31:23;;;;;;;6.90;5.45;;;;;;;;;;5072934;28;20192;-61
2023/01/22 02:33:50;;;;;;;6.07;5.40;;;;;;;;;;5072855;28;20185;-61
2023/01/22 02:36:18;;;;;;;5.40;4.88;;;;;;;;;;5072735;28;20225;-61
2023/01/22 02:38:46;;;;;;;4.95;4.50;;;;;;;;;;5072672;28;20197;-61
2023/01/22 02:41:14;;;;;;;8.05;5.75;;;;;;;;;;5072547;28;20186;-61
2023/01/22 02:43:40;;;;;;;5.15;4.65;;;;;;;;;;5072614;28;20221;-61
2023/01/22 02:46:07;;;;;;;6.65;5.07;;;;;;;;;;5072770;28;20206;-61
2023/01/22 02:48:34;;;;;;;5.25;4.82;;;;;;;;;;5072948;28;20239;-61
2023/01/22 02:51:01;;;;;;;5.30;4.68;;;;;;;;;;5076638;28;20190;-61
2023/01/22 02:53:28;;;;;;;6.55;4.57;;;;;;;;;;5076439;28;20716;-61
2023/01/22 02:55:56;;;;;;;4.88;4.38;;;;;;;;;;5076935;28;20204;-61
2023/01/22 02:58:23;;;;;;;5.65;5.05;;;;;;;;;;5076616;28;20194;-61
2023/01/22 03:00:50;;;;;;;10.45;5.43;;;;;;;;;;5076559;28;20186;-61
2023/01/22 03:03:17;;;;;;;4.85;4.38;;;;;;;;;;5076450;28;20288;-61
2023/01/22 03:05:45;;;;;;;5.72;5.10;;;;;;;;;;5076328;28;20190;-61
2023/01/22 03:08:12;;;;;;;6.00;5.28;;;;;;;;;;5076133;28;20547;-61
2023/01/22 03:10:39;;;;;;;4.80;4.35;;;;;;;;;;5076325;28;20197;-61
2023/01/22 03:21:21;;;;;;;6.43;5.82;;;;;;;;;;5076151;28;20244;-61
2023/01/22 03:23:49;;;;;;;5.00;4.60;;;;;;;;;;5076020;28;20194;-61
2023/01/22 03:26:16;;;;;;;5.85;5.00;;;;;;;;;;5076043;28;20666;-61
2023/01/22 03:28:44;;;;;;;5.50;4.53;;;;;;;;;;5075821;28;20232;-62
2023/01/22 03:31:12;;;;;;;5.63;4.95;;;;;;;;;;5075773;28;20204;-61
2023/01/22 03:33:39;;;;;;;4.90;4.50;;;;;;;;;;5075936;28;20196;-61
2023/01/22 03:36:07;;;;;;;5.93;5.13;;;;;;;;;;5075867;28;20279;-61
2023/01/22 03:38:34;;;;;;;6.63;5.95;;;;;;;;;;5075899;28;20630;-61
2023/01/22 03:41:02;;;;;;;7.10;5.50;;;;;;;;;;5075810;28;20190;-61
2023/01/22 03:43:29;;;;;;;7.28;6.13;;;;;;;;;;5075450;28;20234;-61
2023/01/22 03:46:01;;;;;;;5.22;4.82;;;;;;;;;;5075826;28;20225;-61
2023/01/22 03:48:28;;;;;;;5.85;4.95;;;;;;;;;;5075676;28;20211;-61
2023/01/22 03:50:55;;;;;;;5.82;5.32;;;;;;;;;;5075672;28;20554;-61
2023/01/22 03:53:22;;;;;;;8.63;6.15;;;;;;;;;;5075538;28;20285;-61
2023/01/22 03:55:56;;;;;;;6.57;5.47;;;;;;;;;;5075375;28;20189;-61
2023/01/22 03:58:23;;;;;;;5.68;4.97;;;;;;;;;;5075608;28;20186;-61
2023/01/22 04:00:50;;;;;;;7.03;5.60;;;;;;;;;;5075227;28;20191;-61
2023/01/22 04:03:19;;;;;;;5.40;4.90;;;;;;;;;;5075390;28;20198;-61
2023/01/22 04:05:45;;;;;;;5.15;4.75;;;;;;;;;;5075398;28;20277;-61
2023/01/22 04:08:12;;;;;;;6.45;5.85;;;;;;;;;;5075276;28;20196;-61
2023/01/22 04:10:39;;;;;;;5.75;5.20;;;;;;;;;;5074955;28;20683;-61
2023/01/22 04:13:06;;;;;;;7.20;5.60;;;;;;;;;;5075277;28;20186;-61
2023/01/22 04:15:33;;;;;;;6.75;6.05;;;;;;;;;;5075187;28;20201;-61
2023/01/22 04:18:00;;;;;;;9.90;6.15;;;;;;;;;;5075063;28;20545;-61
2023/01/22 04:20:28;;;;;;;6.10;5.60;;;;;;;;;;5075005;28;20845;-61
2023/01/22 04:22:55;;;;;;;6.35;5.65;;;;;;;;;;5074847;28;20197;-61
2023/01/22 04:25:22;;;;;;;6.60;5.75;;;;;;;;;;5075057;28;20186;-61
2023/01/22 04:27:49;;;;;;;6.28;5.70;;;;;;;;;;5075020;28;20190;-61
2023/01/22 04:30:16;;;;;;;7.28;5.82;;;;;;;;;;5074872;28;20580;-61
2023/01/22 04:32:43;;;;;;;6.35;5.72;;;;;;;;;;5074846;28;20197;-61
2023/01/22 04:35:10;;;;;;;5.38;4.88;;;;;;;;;;5074744;28;20191;-61
2023/01/22 04:37:39;;;;;;;7.57;6.25;;;;;;;;;;5074619;28;20285;-61
2023/01/22 04:40:06;;;;;;;6.53;5.90;;;;;;;;;;5074752;28;20190;-61
2023/01/22 04:42:33;;;;;;;7.78;6.40;;;;;;;;;;5074680;28;20233;-61
2023/01/22 04:45:00;;;;;;;6.53;5.93;;;;;;;;;;5074327;28;20713;-61
2023/01/22 04:47:27;;;;;;;5.40;4.90;;;;;;;;;;5074526;28;20227;-61
2023/01/22 04:49:54;;;;;;;6.10;5.50;;;;;;;;;;5074353;28;20228;-61
2023/01/22 04:52:21;;;;;;;5.40;5.00;;;;;;;;;;5074283;28;20194;-61
2023/01/22 04:54:50;;;;;;;5.78;5.28;;;;;;;;;;5074501;28;20194;-61
2023/01/22 04:57:17;;;;;;;6.70;5.75;;;;;;;;;;5074372;28;20222;-61
2023/01/22 04:59:44;;;;;;;6.20;5.60;;;;;;;;;;5074298;28;20191;-61
2023/01/22 05:02:11;;;;;;;4.82;4.40;;;;;;;;;;5074329;28;20714;-61
2023/01/22 05:04:38;;;;;;;6.32;5.72;;;;;;;;;;5074011;28;20198;-61
2023/01/22 05:07:05;;;;;;;5.55;5.05;;;;;;;;;;5074267;28;20642;-61
2023/01/22 05:09:32;;;;;;;8.48;5.85;;;;;;;;;;5074125;28;20576;-61
2023/01/22 05:12:01;;;;;;;6.57;5.93;;;;;;;;;;5073406;28;20194;-61
2023/01/22 05:14:27;;;;;;;6.45;5.90;;;;;;;;;;5073924;28;20207;-61
2023/01/22 05:16:54;;;;;;;5.68;5.18;;;;;;;;;;5073843;28;20192;-61
2023/01/22 05:19:21;;;;;;;7.07;6.15;;;;;;;;;;5073725;28;20194;-61
2023/01/22 05:21:48;;;;;;;6.10;5.60;;;;;;;;;;5073647;28;20194;-61
2023/01/22 05:24:17;;;;;;;6.10;5.55;;;;;;;;;;5073863;28;20190;-61
2023/01/22 05:26:44;;;;;;;6.28;5.68;;;;;;;;;;5073737;28;20195;-61
2023/01/22 05:29:12;;;;;;;9.27;5.85;;;;;;;;;;5073656;28;20223;-61
2023/01/22 05:31:39;;;;;;;5.93;5.32;;;;;;;;;;5073547;28;20194;-61
2023/01/22 05:34:06;;;;;;;5.18;4.78;;;;;;;;;;5073471;28;20197;-61
2023/01/22 05:36:33;;;;;;;7.00;6.38;;;;;;;;;;5073670;28;20280;-61
2023/01/22 05:39:00;;;;;;;6.78;6.13;;;;;;;;;;5073500;28;20192;-61
2023/01/22 05:41:27;;;;;;;5.85;5.35;;;;;;;;;;5073490;28;20197;-61
2023/01/22 05:43:54;;;;;;;7.00;5.55;;;;;;;;;;5073232;28;20218;-61
2023/01/22 05:46:22;;;;;;;5.47;4.97;;;;;;;;;;5073282;28;20361;-61
2023/01/22 05:48:49;;;;;;;5.68;5.18;;;;;;;;;;5073484;28;20208;-61
2023/01/22 05:51:16;;;;;;;6.40;5.70;;;;;;;;;;5073411;28;20187;-61
2023/01/22 05:53:43;;;;;;;5.97;5.47;;;;;;;;;;5073343;28;20534;-61
2023/01/22 05:56:10;;;;;;;6.10;5.60;;;;;;;;;;5073262;28;20190;-61
2023/01/22 05:58:37;;;;;;;5.68;5.18;;;;;;;;;;5073159;28;20284;-61
2023/01/22 06:01:05;;;;;;;5.72;5.22;;;;;;;;;;5073014;28;20560;-61
2023/01/22 06:03:33;;;;;;;7.05;6.45;;;;;;;;;;5073035;28;20272;-61
2023/01/22 06:06:00;;;;;;;7.38;6.30;;;;;;;;;;5073185;28;20280;-61
2023/01/22 06:08:27;;;;;;;6.38;5.78;;;;;;;;;;5073041;28;20204;-61
2023/01/22 06:10:59;;;;;;;7.13;6.43;;;;;;;;;;5073024;28;20649;-61
2023/01/22 06:13:26;;;;;;;7.65;6.85;;;;;;;;;;5072888;28;20552;-61
2023/01/22 06:15:53;;;;;;;7.03;6.30;;;;;;;;;;5073095;28;20653;-61
2023/01/22 06:18:20;;;;;;;7.80;6.93;;;;;;;;;;5073090;28;20221;-61
2023/01/22 06:20:48;;;;;;;6.95;6.22;;;;;;;;;;5072971;28;20196;-61
2023/01/22 06:23:15;;;;;;;7.25;6.22;;;;;;;;;;5072855;28;20190;-61
2023/01/22 06:25:43;;;;;;;7.88;6.45;;;;;;;;;;5072830;28;20190;-61
2023/01/22 06:28:10;;;;;;;7.25;6.30;;;;;;;;;;5072595;28;20190;-61
2023/01/22 06:30:37;;;;;;;6.30;5.70;;;;;;;;;;5072562;28;20688;-61
2023/01/22 06:33:04;;;;;;;7.22;6.45;;;;;;;;;;5072799;28;20200;-61
2023/01/22 06:35:31;;;;;;;6.90;5.78;;;;;;;;;;5072818;28;20190;-61
2023/01/22 06:37:59;;;;;;;8.32;6.72;;;;;;;;;;5072749;28;20622;-61
2023/01/22 06:40:26;;;;;;;7.20;6.50;;;;;;;;;;5072625;28;20186;-61
2023/01/22 06:42:53;;;;;;;6.93;6.28;;;;;;;;;;5072867;28;20280;-61
2023/01/22 06:45:20;;;;;;;8.70;7.75;;;;;;;;;;5072468;28;20584;-61
2023/01/22 06:47:47;;;;;;;7.75;6.82;;;;;;;;;;5072773;28;20190;-61
2023/01/22 06:50:14;;;;;;;8.77;7.00;;;;;;;;;;5072516;28;20209;-61
2023/01/22 06:52:41;;;;;;;8.23;6.93;;;;;;;;;;5072634;28;20564;-61
2023/01/22 06:55:10;;;;;;;7.90;6.22;;;;;;;;;;5072358;28;20553;-61
2023/01/22 06:57:36;;;;;;;10.30;7.63;;;;;;;;;;5072697;28;20195;-61
2023/01/22 07:00:04;;;;;;;9.30;6.93;;;;;;;;;;5072605;28;20190;-61
2023/01/22 07:02:31;;;;;;;7.70;6.70;;;;;;;;;;5072599;28;20266;-61
2023/01/22 07:04:59;;;;;;;8.40;7.43;;;;;;;;;;5072484;28;20289;-61
2023/01/22 07:07:25;;;;;;;10.20;8.25;;;;;;;;;;5072377;28;20527;-61
2023/01/22 07:09:52;;;;;;;9.82;8.05;;;;;;;;;;5072577;28;20229;-61
2023/01/22 07:12:21;;;;;;;8.40;7.50;;;;;;;;;;5072426;28;20245;-61
2023/01/22 07:14:48;;;;;;;8.82;8.02;;;;;;;;;;5072457;28;20360;-61
2023/01/22 07:17:14;;;;;;;7.68;6.85;;;;;;;;;;5072381;28;20194;-61
2023/01/22 07:19:41;;;;;;;8.48;7.30;;;;;;;;;;5072321;28;20198;-61
2023/01/22 07:22:08;;;;;;;8.95;7.15;;;;;;;;;;5072226;28;20569;-61
2023/01/22 07:24:35;;;;;;;8.43;7.20;;;;;;;;;;5072465;28;20186;-61
2023/01/22 07:27:02;;;;;;;7.40;6.70;;;;;;;;;;5072369;28;20193;-61
2023/01/22 07:29:31;;;;;;;7.32;6.63;;;;;;;;;;5072111;28;20190;-61
2023/01/22 07:31:58;;;;;;;9.10;6.55;;;;;;;;;;5072222;28;20289;-61
2023/01/22 07:34:25;;;;;;;8.13;6.60;;;;;;;;;;5072289;28;20186;-61
2023/01/22 07:36:51;;;;;;;7.25;6.57;;;;;;;;;;5075659;28;20190;-61
2023/01/22 07:39:19;;;;;;;7.22;6.53;;;;;;;;;;5075774;28;20677;-61
2023/01/22 07:41:45;;;;;;;8.48;7.00;;;;;;;;;;5075636;28;20649;-61
2023/01/22 07:44:13;;;;;;;11.18;8.00;;;;;;;;;;5075499;28;20219;-61
2023/01/22 07:46:42;;;;;;;8.23;6.75;;;;;;;;;;5075679;28;20561;-61
2023/01/22 07:49:08;;;;;;;7.75;6.60;;;;;;;;;;5075518;28;20185;-61
2023/01/22 07:51:36;;;;;;;15.50;7.50;;;;;;;;;;5075639;28;20226;-61
2023/01/22 07:54:03;;;;;;;6.82;6.13;;;;;;;;;;5075705;28;20315;-61
2023/01/22 07:56:30;;;;;;;7.90;7.10;;;;;;;;;;5075640;28;20191;-61
2023/01/22 07:58:57;;;;;;;7.35;6.65;;;;;;;;;;5075456;28;20628;-61
2023/01/22 08:01:24;;;;;;;6.80;6.15;;;;;;;;;;5075427;28;20189;-61
2023/01/22 08:03:52;;;;;;;7.97;7.18;;;;;;;;;;5075260;28;20276;-61
2023/01/22 08:06:20;;;;;;;8.75;6.55;;;;;;;;;;5075398;28;20212;-61
2023/01/22 08:08:47;;;;;;;7.30;6.50;;;;;;;;;;5075397;28;20193;-61
2023/01/22 08:11:14;;;;;;;7.70;7.00;;;;;;;;;;5075061;28;20750;-61
2023/01/22 08:13:41;;;;;;;9.43;7.55;;;;;;;;;;5075147;28;20194;-61
2023/01/22 08:16:09;;;;;;;7.00;6.40;;;;;;;;;;5074956;28;20247;-61
2023/01/22 08:18:35;;;;;;;7.60;6.78;;;;;;;;;;5074970;28;20198;-61
2023/01/22 08:21:04;;;;;;;7.40;6.65;;;;;;;;;;5075124;28;20198;-61
2023/01/22 08:23:31;;;;;;;6.68;6.15;;;;;;;;;;5074988;28;20193;-61
2023/01/22 08:25:59;;;;;;;8.48;7.60;;;;;;;;;;5074882;28;20229;-61
2023/01/22 08:28:26;;;;;;;9.20;8.32;;;;;;;;;;5074821;28;20216;-61
2023/01/22 08:30:56;;;;;;;9.73;7.60;;;;;;;;;;5074601;28;20673;-61
2023/01/22 08:33:23;;;;;;;7.60;6.90;;;;;;;;;;5074950;28;20189;-61
2023/01/22 08:35:50;;;;;;;7.57;6.78;;;;;;;;;;5074718;28;20189;-61
2023/01/22 08:38:19;;;;;;;7.45;6.75;;;;;;;;;;5074672;28;20282;-61
2023/01/22 08:40:48;;;;;;;9.40;8.25;;;;;;;;;;5074538;28;20190;-61
2023/01/22 08:43:15;;;;;;;9.10;7.22;;;;;;;;;;5074181;28;20190;-61
2023/01/22 08:45:42;;;;;;;9.10;8.05;;;;;;;;;;5074423;28;20212;-61
2023/01/22 08:48:09;;;;;;;8.45;7.53;;;;;;;;;;5073706;28;20284;-61
2023/01/22 08:50:36;;;;;;;8.75;7.85;;;;;;;;;;5074311;28;20218;-61
2023/01/22 08:53:03;;;;;;;8.80;7.90;;;;;;;;;;5074332;28;20297;-61
2023/01/22 08:55:31;;;;;;;9.25;8.05;;;;;;;;;;5074108;28;20713;-61
2023/01/22 08:57:58;;;;;;;7.60;6.85;;;;;;;;;;5074069;28;20194;-61
2023/01/22 09:00:26;;;;;;;8.00;7.30;;;;;;;;;;5074327;28;20201;-61
2023/01/22 09:02:57;;;;;;;8.75;7.65;;;;;;;;;;5074202;28;20237;-61
2023/01/22 09:05:24;;;;;;;10.73;7.97;;;;;;;;;;5074159;28;20561;-61
2023/01/22 09:07:50;;;;;;;10.65;7.80;;;;;;;;;;5074057;28;20209;-61
2023/01/22 09:10:18;;;;;;;7.93;7.13;;;;;;;;;;5073893;28;20263;-61
2023/01/22 09:12:46;;;;;;;9.82;8.85;;;;;;;;;;5073742;28;20189;-61
2023/01/22 09:15:14;;;;;;;12.23;8.48;;;;;;;;;;5074010;28;20190;-61
2023/01/22 09:17:41;;;;;;;8.93;7.88;;;;;;;;;;5073875;28;20197;-61
2023/01/22 09:20:09;;;;;;;9.68;8.52;;;;;;;;;;5073854;28;20200;-61
2023/01/22 09:22:36;;;;;;;11.82;8.57;;;;;;;;;;5073647;28;20199;-61
2023/01/22 09:25:03;;;;;;;9.60;8.50;;;;;;;;;;5073596;28;20597;-61
2023/01/22 09:27:30;;;;;;;8.23;7.35;;;;;;;;;;5073826;28;20198;-61
2023/01/22 09:29:59;;;;;;;7.88;7.10;;;;;;;;;;5073529;28;20205;-61
2023/01/22 09:32:26;;;;;;;9.70;8.70;;;;;;;;;;5073608;28;20187;-61
2023/01/22 09:34:53;;;;;;;11.10;8.18;;;;;;;;;;5073408;28;20282;-61
2023/01/22 09:37:20;;;;;;;9.50;7.95;;;;;;;;;;5073473;28;20356;-61
2023/01/22 09:39:49;;;;;;;9.70;8.25;;;;;;;;;;5073283;28;20671;-61
2023/01/22 09:42:18;;;;;;;9.77;8.80;;;;;;;;;;5073277;28;20704;-61
2023/01/22 09:44:46;;;;;;;11.80;8.88;;;;;;;;;;5073246;28;20308;-61
2023/01/22 09:47:16;;;;;;;8.05;7.28;;;;;;;;;;5073322;28;20190;-61
2023/01/22 09:49:46;;;;;;;9.40;8.02;;;;;;;;;;5073304;28;20239;-61
2023/01/22 09:52:13;;;;;;;8.55;7.35;;;;;;;;;;5073085;28;20576;-61
2023/01/22 09:54:42;;;;;;;9.18;8.18;;;;;;;;;;5073349;28;20195;-61
2023/01/22 09:57:12;;;;;;;8.90;7.75;;;;;;;;;;5072935;28;20206;-61
2023/01/22 09:59:41;;;;;;;8.65;7.75;;;;;;;;;;5073021;28;20294;-61
2023/01/22 10:02:20;;;;;;;10.07;8.38;;;;;;;;;;5073027;28;20530;-61
2023/01/22 10:04:48;;;;;;;11.32;8.80;;;;;;;;;;5072915;28;20190;-61
2023/01/22 10:07:17;;;;;;;10.35;8.05;;;;;;;;;;5073126;28;20248;-61
2023/01/22 10:09:47;;;;;;;9.45;8.55;;;;;;;;;;5073064;28;20190;-61
2023/01/22 10:12:14;;;;;;;9.05;8.13;;;;;;;;;;5072765;28;20313;-61
2023/01/22 10:14:42;;;;;;;9.30;8.32;;;;;;;;;;5072918;28;20280;-61
2023/01/22 10:17:16;;;;;;;8.57;7.78;;;;;;;;;;5072778;28;20292;-61
2023/01/22 10:19:46;;;;;;;9.00;7.35;;;;;;;;;;5072881;28;20619;-61
2023/01/22 10:22:16;;;;;;;9.15;8.23;;;;;;;;;;5073046;28;20202;-61
2023/01/22 10:24:43;;;;;;;8.73;7.72;;;;;;;;;;5072875;28;20324;-61
2023/01/22 10:27:11;;;;;;;11.25;8.43;;;;;;;;;;5072829;28;20186;-61
2023/01/22 10:29:38;;;;;;;9.35;8.35;;;;;;;;;;5072664;28;20290;-61
2023/01/22 10:32:16;;;;;;;9.50;8.23;;;;;;;;;;5072487;28;20254;-61
2023/01/22 10:34:44;;;;;;;7.72;6.97;;;;;;;;;;5072888;28;20220;-61
2023/01/22 10:37:14;;;;;;;8.02;7.05;;;;;;;;;;5072801;28;20213;-61
2023/01/22 10:39:41;;;;;;;9.68;8.50;;;;;;;;;;5072667;28;20190;-61
2023/01/22 10:42:16;;;;;;;8.50;7.70;;;;;;;;;;5072527;28;20190;-61
2023/01/22 10:44:42;;;;;;;8.75;7.95;;;;;;;;;;5072528;28;20231;-61
2023/01/22 10:47:17;;;;;;;8.40;7.68;;;;;;;;;;5072698;28;20611;-61
2023/01/22 10:49:45;;;;;;;9.00;8.10;;;;;;;;;;5072694;28;20190;-61
2023/01/22 10:52:20;;;;;;;10.00;9.00;;;;;;;;;;5072468;28;20218;-61
2023/01/22 10:54:51;;;;;;;10.07;8.85;;;;;;;;;;5072435;28;20193;-61
2023/01/22 10:57:20;;;;;;;10.65;9.40;;;;;;;;;;5072669;28;20746;-61
2023/01/22 10:59:49;;;;;;;7.60;6.93;;;;;;;;;;5072567;28;20217;-61
2023/01/22 11:02:19;;;;;;;8.90;8.00;;;;;;;;;;5072449;28;20187;-61
2023/01/22 11:04:47;;;;;;;8.32;7.35;;;;;;;;;;5072461;28;20193;-61
2023/01/22 11:07:15;;;;;;;8.40;7.60;;;;;;;;;;5072836;28;20204;-61
2023/01/22 11:09:44;;;;;;;8.80;7.88;;;;;;;;;;5073161;28;20666;-61
2023/01/22 11:12:15;;;;;;;8.10;6.97;;;;;;;;;;5076268;28;20219;-61
2023/01/22 11:14:42;;;;;;;8.57;7.38;;;;;;;;;;5076242;28;20186;-61
2023/01/22 11:17:14;;;;;;;9.48;8.32;;;;;;;;;;5076191;28;20197;-61
2023/01/22 11:19:42;;;;;;;10.02;8.32;;;;;;;;;;5076068;28;20198;-61
2023/01/22 11:22:17;;;;;;;9.40;8.50;;;;;;;;;;5076254;28;20323;-61
2023/01/22 11:24:46;;;;;;;8.90;8.07;;;;;;;;;;5076151;28;20274;-61
2023/01/22 11:27:19;;;;;;;9.20;8.20;;;;;;;;;;5076077;28;20190;-61
2023/01/22 11:29:54;;;;;;;9.65;8.60;;;;;;;;;;5075983;28;20200;-61
2023/01/22 11:32:36;;;;;;;14.85;10.45;;;;;;;;;;5075706;28;20304;-61
2023/01/22 11:35:11;;;;;;;14.50;9.50;;;;;;;;;;5075751;28;20704;-61
2023/01/22 11:37:47;;;;;;;13.48;9.77;;;;;;;;;;5075845;28;20189;-61
2023/01/22 11:40:19;;;;;;;14.15;9.90;;;;;;;;;;5075719;28;20187;-61
2023/01/22 11:42:54;;;;;;;10.60;8.73;;;;;;;;;;5075697;28;20202;-61
2023/01/22 11:45:28;;;;;;;19.73;13.75;;;;;;;;;;5075614;28;20222;-61
2023/01/22 11:48:02;;;;;;;14.20;11.88;;;;;;;;;;5076031;28;20281;-61
2023/01/22 11:50:31;;;;;;;10.25;9.25;;;;;;;;;;5075644;28;20190;-61
2023/01/22 11:53:05;;;;;;;9.48;8.55;;;;;;;;;;5075370;28;20218;-61
2023/01/22 11:55:41;;;;;;;12.00;10.23;;;;;;;;;;5075680;28;20200;-61
2023/01/22 11:58:11;;;;;;;9.18;8.23;;;;;;;;;;5075612;28;20281;-61
2023/01/22 12:00:41;;;;;;;9.27;8.32;;;;;;;;;;5075473;28;20200;-61
2023/01/22 12:03:33;;;;;;;8.48;7.68;;;;;;;;;;5075338;28;20222;-61
2023/01/22 12:06:11;;;;;;;12.13;9.45;;;;;;;;;;5075484;28;20201;-61
2023/01/22 12:08:45;;;;;;;14.75;11.93;;;;;;;;;;5075402;28;20560;-61
2023/01/22 12:11:29;;;;;;;14.50;13.05;;;;;;;;;;5075321;28;20245;-61
2023/01/22 12:14:12;;;;;;;10.38;8.80;;;;;;;;;;5075009;28;20277;-61
2023/01/22 12:16:43;;;;;;;13.52;12.15;;;;;;;;;;5075247;28;20613;-61
2023/01/22 12:19:20;;;;;;;10.70;8.82;;;;;;;;;;5075118;28;20190;-61
2023/01/22 12:21:53;;;;;;;11.20;9.60;;;;;;;;;;5074775;28;20288;-61
2023/01/22 12:24:23;;;;;;;10.75;9.25;;;;;;;;;;5074876;28;20196;-61
2023/01/22 12:26:55;;;;;;;10.27;8.35;;;;;;;;;;5074931;28;20236;-61
2023/01/22 12:29:23;;;;;;;10.25;7.95;;;;;;;;;;5074949;28;20277;-61
2023/01/22 12:31:52;;;;;;;10.23;8.80;;;;;;;;;;5074736;28;20621;-61
2023/01/22 12:34:22;;;;;;;10.13;8.98;;;;;;;;;;5074685;28;20196;-61
2023/01/22 12:36:49;;;;;;;20.48;15.30;;;;;;;;;;5074551;28;20285;-61
2023/01/22 12:39:19;;;;;;;9.25;8.32;;;;;;;;;;5074877;28;20553;-61
2023/01/22 12:41:49;;;;;;;12.68;9.80;;;;;;;;;;5074815;28;20201;-61
2023/01/22 12:44:23;;;;;;;12.95;10.20;;;;;;;;;;5074492;28;20225;-61
2023/01/22 12:46:54;;;;;;;13.82;12.30;;;;;;;;;;5074534;28;20202;-61
2023/01/22 12:49:21;;;;;;;12.38;11.10;;;;;;;;;;5074297;28;20196;-61
2023/01/22 12:51:49;;;;;;;11.98;10.77;;;;;;;;;;5074423;28;20304;-61
2023/01/22 12:54:23;;;;;;;10.32;9.32;;;;;;;;;;5074216;28;20682;-61
2023/01/22 12:56:52;;;;;;;9.93;8.93;;;;;;;;;;5074241;28;20276;-61
2023/01/22 12:59:32;;;;;;;11.25;9.50;;;;;;;;;;5074303;28;20630;-61
2023/01/22 13:02:00;;;;;;;10.55;8.60;;;;;;;;;;5074122;28;20282;-61
2023/01/22 13:04:29;;;;;;;11.25;9.50;;;;;;;;;;5074299;28;20205;-61
2023/01/22 13:07:04;;;;;;;12.70;11.40;;;;;;;;;;5074056;28;20206;-61
2023/01/22 13:09:35;;;;;;;14.23;11.95;;;;;;;;;;5073992;28;20211;-61
2023/01/22 13:12:10;;;;;;;22.10;13.68;;;;;;;;;;5073879;28;20210;-61
2023/01/22 13:14:41;;;;;;;16.60;12.82;;;;;;;;;;5074215;28;20303;-61
2023/01/22 13:17:17;;;;;;;15.48;12.95;;;;;;;;;;5074076;28;20202;-61
2023/01/22 13:19:45;;;;;;;11.13;9.93;;;;;;;;;;5073912;28;20197;-61
2023/01/22 13:22:15;;;;;;;13.43;10.98;;;;;;;;;;5073725;28;20507;-61
2023/01/22 13:24:49;;;;;;;13.60;11.40;;;;;;;;;;5073475;28;20197;-61
2023/01/22 13:27:23;;;;;;;14.90;11.43;;;;;;;;;;5074002;28;20188;-61
2023/01/22 13:29:50;;;;;;;11.73;9.23;;;;;;;;;;5073614;28;20661;-61
2023/01/22 13:32:18;;;;;;;16.83;12.60;;;;;;;;;;5073056;28;20576;-61
2023/01/22 13:34:45;;;;;;;14.20;11.68;;;;;;;;;;5073487;28;20650;-61
2023/01/22 13:37:20;;;;;;;21.73;15.02;;;;;;;;;;5073312;28;20187;-61
2023/01/22 13:39:47;;;;;;;13.63;10.32;;;;;;;;;;5073560;28;20195;-61
2023/01/22 13:42:14;;;;;;;14.63;11.82;;;;;;;;;;5073502;28;20190;-61
2023/01/22 13:44:46;;;;;;;11.95;10.75;;;;;;;;;;5073528;28;20317;-61
2023/01/22 13:47:21;;;;;;;13.70;11.98;;;;;;;;;;5073167;28;20653;-61
2023/01/22 13:49:48;;;;;;;12.68;10.02;;;;;;;;;;5073097;28;20211;-61
2023/01/22 13:52:16;;;;;;;15.68;9.85;;;;;;;;;;5073212;28;20577;-61
2023/01/22 13:54:45;;;;;;;11.35;8.88;;;;;;;;;;5073308;28;20197;-61
2023/01/22 13:57:13;;;;;;;11.52;10.02;;;;;;;;;;5073165;28;20191;-61
2023/01/22 13:59:40;;;;;;;11.80;10.40;;;;;;;;;;5073213;28;20225;-61
2023/01/22 14:02:20;;;;;;;14.15;11.77;;;;;;;;;;5073110;28;20291;-61
2023/01/22 14:04:48;;;;;;;15.93;14.20;;;;;;;;;;5073213;28;20200;-61
2023/01/22 14:07:23;;;;;;;11.32;9.13;;;;;;;;;;5072979;28;20191;-61
2023/01/22 14:09:50;;;;;;;11.30;9.95;;;;;;;;;;5073037;28;20225;-61
2023/01/22 14:12:18;;;;;;;12.65;11.23;;;;;;;;;;5072963;28;20550;-61
2023/01/22 14:14:45;;;;;;;11.90;9.98;;;;;;;;;;5072973;28;20236;-61
2023/01/22 14:17:24;;;;;;;12.90;11.43;;;;;;;;;;5073037;28;20197;-61
2023/01/22 14:19:51;;;;;;;12.20;9.38;;;;;;;;;;5072983;28;20197;-61
2023/01/22 14:22:18;;;;;;;11.82;9.85;;;;;;;;;;5072854;28;20550;-61
2023/01/22 14:24:45;;;;;;;10.85;9.35;;;;;;;;;;5072755;28;20637;-61
2023/01/22 14:27:12;;;;;;;13.82;10.75;;;;;;;;;;5072720;28;20589;-61
2023/01/22 14:29:39;;;;;;;14.13;10.32;;;;;;;;;;5072986;28;20375;-61
2023/01/22 14:32:06;;;;;;;12.10;10.50;;;;;;;;;;5072855;28;20305;-61
2023/01/22 14:34:34;;;;;;;13.43;10.48;;;;;;;;;;5072805;28;20201;-61
2023/01/22 14:37:01;;;;;;;13.43;10.07;;;;;;;;;;5072716;28;20270;-61
2023/01/22 14:39:31;;;;;;;10.90;9.55;;;;;;;;;;5072752;28;20557;-61
2023/01/22 14:41:58;;;;;;;11.50;9.40;;;;;;;;;;5072597;28;20199;-61
2023/01/22 14:44:25;;;;;;;13.23;10.82;;;;;;;;;;5072703;28;20218;-61
2023/01/22 14:46:52;;;;;;;13.77;9.55;;;;;;;;;;5076884;28;20196;-61
2023/01/22 14:49:19;;;;;;;12.20;10.23;;;;;;;;;;5076795;28;20194;-61
2023/01/22 14:51:47;;;;;;;15.65;10.23;;;;;;;;;;5076441;28;20653;-62
2023/01/22 14:54:14;;;;;;;12.98;10.45;;;;;;;;;;5076571;28;20196;-61